Taft, Ohio
Current Conditions -  °F | °C
As of 3:10 AM on Monday 24 Nov 2014 (Local Time) from KLUK Reporting Station
Overcast Overcast  
Wind Chill: 16°   Ceiling: 2000
Heat Index: 16°   Visibility: 10mi
Dew Point: 14°   Wind: 17mph
Humidity: 90%   Direction: 210°SSW
Pressure: 29.35"   Gusts: 28mph
Location:  39.2094°N, 84.3952°W
Report Text: KLUK 240810Z AUTO 21015G24KT 10SM BKN020 BKN028 OVC038 16/14 A2935 RMK AO2 T01560139 $
Loading
Personal Weather Stations






























Interactive Weather Map New forecast layout! Learn more

10-Day Weather Forecast

Advertisements
Track Severe Weather on mobile